sensor_id;sensor_type;location;lat;lon;timestamp;P1;durP1;ratioP1;P2;durP2;ratioP2
31206;SDS011;17834;52.992;8.856;2023-01-28T00:00:29;4.25;;;2.53;;
31206;SDS011;17834;52.992;8.856;2023-01-28T00:02:55;3.65;;;2.50;;
31206;SDS011;17834;52.992;8.856;2023-01-28T00:05:21;3.00;;;2.38;;
31206;SDS011;17834;52.992;8.856;2023-01-28T00:07:50;3.38;;;1.92;;
31206;SDS011;17834;52.992;8.856;2023-01-28T00:10:17;5.20;;;2.35;;
31206;SDS011;17834;52.992;8.856;2023-01-28T00:12:43;3.45;;;2.50;;
31206;SDS011;17834;52.992;8.856;2023-01-28T00:15:10;3.75;;;2.40;;
31206;SDS011;17834;52.992;8.856;2023-01-28T00:17:36;5.10;;;2.10;;
31206;SDS011;17834;52.992;8.856;2023-01-28T00:20:05;5.10;;;2.50;;
31206;SDS011;17834;52.992;8.856;2023-01-28T00:22:32;3.83;;;2.97;;
31206;SDS011;17834;52.992;8.856;2023-01-28T00:24:58;5.55;;;2.47;;
31206;SDS011;17834;52.992;8.856;2023-01-28T00:27:24;3.92;;;2.40;;
31206;SDS011;17834;52.992;8.856;2023-01-28T00:29:50;4.25;;;2.78;;
31206;SDS011;17834;52.992;8.856;2023-01-28T00:32:17;6.50;;;3.08;;
31206;SDS011;17834;52.992;8.856;2023-01-28T00:34:44;3.25;;;2.65;;
31206;SDS011;17834;52.992;8.856;2023-01-28T00:37:10;5.10;;;2.60;;
31206;SDS011;17834;52.992;8.856;2023-01-28T00:39:35;5.25;;;2.50;;
31206;SDS011;17834;52.992;8.856;2023-01-28T00:42:01;2.42;;;2.17;;
31206;SDS011;17834;52.992;8.856;2023-01-28T00:44:27;4.00;;;2.70;;
31206;SDS011;17834;52.992;8.856;2023-01-28T00:46:53;4.10;;;2.22;;
31206;SDS011;17834;52.992;8.856;2023-01-28T00:49:19;6.32;;;2.95;;
31206;SDS011;17834;52.992;8.856;2023-01-28T00:51:45;4.22;;;2.58;;
31206;SDS011;17834;52.992;8.856;2023-01-28T00:54:12;3.17;;;2.33;;
31206;SDS011;17834;52.992;8.856;2023-01-28T00:56:38;3.45;;;2.30;;
31206;SDS011;17834;52.992;8.856;2023-01-28T00:59:04;3.85;;;2.55;;
31206;SDS011;17834;52.992;8.856;2023-01-28T01:01:30;5.78;;;2.70;;
31206;SDS011;17834;52.992;8.856;2023-01-28T01:03:57;4.47;;;2.28;;
31206;SDS011;17834;52.992;8.856;2023-01-28T01:06:26;2.40;;;1.95;;
31206;SDS011;17834;52.992;8.856;2023-01-28T01:08:52;2.67;;;2.15;;
31206;SDS011;17834;52.992;8.856;2023-01-28T01:11:19;4.80;;;2.47;;
31206;SDS011;17834;52.992;8.856;2023-01-28T01:13:49;3.72;;;2.42;;
31206;SDS011;17834;52.992;8.856;2023-01-28T01:16:15;3.88;;;2.53;;
31206;SDS011;17834;52.992;8.856;2023-01-28T01:18:41;3.65;;;2.40;;
31206;SDS011;17834;52.992;8.856;2023-01-28T01:21:12;2.90;;;2.50;;
31206;SDS011;17834;52.992;8.856;2023-01-28T01:23:38;5.35;;;2.65;;
31206;SDS011;17834;52.992;8.856;2023-01-28T01:26:04;3.75;;;2.50;;
31206;SDS011;17834;52.992;8.856;2023-01-28T01:28:31;3.95;;;2.35;;
31206;SDS011;17834;52.992;8.856;2023-01-28T01:30:58;4.22;;;2.75;;
31206;SDS011;17834;52.992;8.856;2023-01-28T01:33:24;4.47;;;2.30;;
31206;SDS011;17834;52.992;8.856;2023-01-28T01:35:53;3.05;;;2.40;;
31206;SDS011;17834;52.992;8.856;2023-01-28T01:38:19;3.15;;;2.53;;
31206;SDS011;17834;52.992;8.856;2023-01-28T01:40:45;3.92;;;2.50;;
31206;SDS011;17834;52.992;8.856;2023-01-28T01:43:13;3.38;;;2.50;;
31206;SDS011;17834;52.992;8.856;2023-01-28T01:45:40;5.95;;;2.58;;
31206;SDS011;17834;52.992;8.856;2023-01-28T01:48:14;2.85;;;2.55;;
31206;SDS011;17834;52.992;8.856;2023-01-28T01:50:44;3.58;;;2.40;;
31206;SDS011;17834;52.992;8.856;2023-01-28T01:53:15;3.90;;;2.10;;
31206;SDS011;17834;52.992;8.856;2023-01-28T01:55:42;5.45;;;2.58;;
31206;SDS011;17834;52.992;8.856;2023-01-28T01:58:10;8.25;;;2.78;;
31206;SDS011;17834;52.992;8.856;2023-01-28T02:00:38;3.53;;;2.65;;
31206;SDS011;17834;52.992;8.856;2023-01-28T02:03:04;5.82;;;2.80;;
31206;SDS011;17834;52.992;8.856;2023-01-28T02:05:30;6.88;;;2.55;;
31206;SDS011;17834;52.992;8.856;2023-01-28T02:07:56;3.88;;;3.05;;
31206;SDS011;17834;52.992;8.856;2023-01-28T02:10:43;3.25;;;2.33;;
31206;SDS011;17834;52.992;8.856;2023-01-28T02:13:09;7.13;;;2.85;;
31206;SDS011;17834;52.992;8.856;2023-01-28T02:15:35;3.85;;;2.47;;
31206;SDS011;17834;52.992;8.856;2023-01-28T02:18:01;5.82;;;2.47;;
31206;SDS011;17834;52.992;8.856;2023-01-28T02:28:31;5.13;;;2.17;;
31206;SDS011;17834;52.992;8.856;2023-01-28T02:33:28;9.82;;;4.63;;
31206;SDS011;17834;52.992;8.856;2023-01-28T02:35:55;7.50;;;3.85;;
31206;SDS011;17834;52.992;8.856;2023-01-28T02:38:27;11.25;;;3.47;;
31206;SDS011;17834;52.992;8.856;2023-01-28T02:40:56;4.97;;;2.60;;
31206;SDS011;17834;52.992;8.856;2023-01-28T02:45:55;4.70;;;2.60;;
31206;SDS011;17834;52.992;8.856;2023-01-28T02:48:40;4.18;;;2.50;;
31206;SDS011;17834;52.992;8.856;2023-01-28T02:51:12;4.90;;;2.50;;
31206;SDS011;17834;52.992;8.856;2023-01-28T02:53:46;3.92;;;2.88;;
31206;SDS011;17834;52.992;8.856;2023-01-28T02:56:24;5.28;;;3.42;;
31206;SDS011;17834;52.992;8.856;2023-01-28T03:01:37;4.80;;;2.90;;
31206;SDS011;17834;52.992;8.856;2023-01-28T03:04:06;6.03;;;2.60;;
31206;SDS011;17834;52.992;8.856;2023-01-28T03:06:34;4.22;;;2.75;;
31206;SDS011;17834;52.992;8.856;2023-01-28T03:09:03;8.25;;;3.28;;
31206;SDS011;17834;52.992;8.856;2023-01-28T03:12:02;3.97;;;2.97;;
31206;SDS011;17834;52.992;8.856;2023-01-28T03:17:57;5.45;;;3.05;;
31206;SDS011;17834;52.992;8.856;2023-01-28T03:23:31;3.90;;;2.90;;
31206;SDS011;17834;52.992;8.856;2023-01-28T03:26:21;7.65;;;3.15;;
31206;SDS011;17834;52.992;8.856;2023-01-28T03:29:07;5.47;;;3.47;;
31206;SDS011;17834;52.992;8.856;2023-01-28T03:31:52;5.88;;;3.00;;
31206;SDS011;17834;52.992;8.856;2023-01-28T03:34:37;5.97;;;3.28;;
31206;SDS011;17834;52.992;8.856;2023-01-28T03:37:22;7.05;;;3.17;;
31206;SDS011;17834;52.992;8.856;2023-01-28T03:39:48;7.45;;;3.33;;
31206;SDS011;17834;52.992;8.856;2023-01-28T03:42:14;4.30;;;2.38;;
31206;SDS011;17834;52.992;8.856;2023-01-28T03:44:42;4.90;;;2.65;;
31206;SDS011;17834;52.992;8.856;2023-01-28T03:47:18;6.72;;;3.00;;
31206;SDS011;17834;52.992;8.856;2023-01-28T03:49:45;7.75;;;2.63;;
31206;SDS011;17834;52.992;8.856;2023-01-28T03:52:15;5.35;;;2.38;;
31206;SDS011;17834;52.992;8.856;2023-01-28T03:54:42;6.50;;;3.05;;
31206;SDS011;17834;52.992;8.856;2023-01-28T03:57:08;2.83;;;2.53;;
31206;SDS011;17834;52.992;8.856;2023-01-28T03:59:34;4.78;;;2.75;;
31206;SDS011;17834;52.992;8.856;2023-01-28T04:02:00;3.88;;;2.60;;
31206;SDS011;17834;52.992;8.856;2023-01-28T04:04:27;3.25;;;2.58;;
31206;SDS011;17834;52.992;8.856;2023-01-28T04:06:53;5.45;;;3.28;;
31206;SDS011;17834;52.992;8.856;2023-01-28T04:09:20;4.03;;;2.97;;
31206;SDS011;17834;52.992;8.856;2023-01-28T04:11:46;4.00;;;2.85;;
31206;SDS011;17834;52.992;8.856;2023-01-28T04:14:13;3.10;;;2.63;;
31206;SDS011;17834;52.992;8.856;2023-01-28T04:16:40;5.93;;;3.28;;
31206;SDS011;17834;52.992;8.856;2023-01-28T04:19:06;2.80;;;2.50;;
31206;SDS011;17834;52.992;8.856;2023-01-28T04:21:32;5.53;;;2.60;;
31206;SDS011;17834;52.992;8.856;2023-01-28T04:23:58;4.97;;;3.00;;
31206;SDS011;17834;52.992;8.856;2023-01-28T04:26:25;8.90;;;3.28;;
31206;SDS011;17834;52.992;8.856;2023-01-28T04:28:51;4.95;;;3.47;;
31206;SDS011;17834;52.992;8.856;2023-01-28T04:31:17;5.30;;;3.40;;
31206;SDS011;17834;52.992;8.856;2023-01-28T04:33:43;4.88;;;3.33;;
31206;SDS011;17834;52.992;8.856;2023-01-28T04:36:09;4.63;;;3.05;;
31206;SDS011;17834;52.992;8.856;2023-01-28T04:38:35;5.15;;;3.28;;
31206;SDS011;17834;52.992;8.856;2023-01-28T04:41:01;3.90;;;2.97;;
31206;SDS011;17834;52.992;8.856;2023-01-28T04:43:27;4.22;;;3.17;;
31206;SDS011;17834;52.992;8.856;2023-01-28T04:45:53;5.40;;;3.70;;
31206;SDS011;17834;52.992;8.856;2023-01-28T04:48:19;4.78;;;3.03;;
31206;SDS011;17834;52.992;8.856;2023-01-28T04:50:45;6.50;;;3.50;;
31206;SDS011;17834;52.992;8.856;2023-01-28T04:53:11;10.18;;;5.25;;
31206;SDS011;17834;52.992;8.856;2023-01-28T04:55:37;7.53;;;4.97;;
31206;SDS011;17834;52.992;8.856;2023-01-28T04:58:03;10.07;;;5.80;;
31206;SDS011;17834;52.992;8.856;2023-01-28T05:00:29;6.53;;;4.47;;
31206;SDS011;17834;52.992;8.856;2023-01-28T05:02:54;8.60;;;5.15;;
31206;SDS011;17834;52.992;8.856;2023-01-28T05:05:20;9.00;;;5.43;;
31206;SDS011;17834;52.992;8.856;2023-01-28T05:07:50;11.25;;;5.22;;
31206;SDS011;17834;52.992;8.856;2023-01-28T05:10:16;9.35;;;5.45;;
31206;SDS011;17834;52.992;8.856;2023-01-28T05:12:44;12.63;;;5.95;;
31206;SDS011;17834;52.992;8.856;2023-01-28T05:15:10;15.13;;;7.40;;
31206;SDS011;17834;52.992;8.856;2023-01-28T05:17:36;11.73;;;7.63;;
31206;SDS011;17834;52.992;8.856;2023-01-28T05:20:02;10.18;;;5.80;;
31206;SDS011;17834;52.992;8.856;2023-01-28T05:22:28;16.02;;;5.55;;
31206;SDS011;17834;52.992;8.856;2023-01-28T05:24:54;13.48;;;5.22;;
31206;SDS011;17834;52.992;8.856;2023-01-28T05:27:20;10.10;;;5.95;;
31206;SDS011;17834;52.992;8.856;2023-01-28T05:29:46;9.57;;;5.05;;
31206;SDS011;17834;52.992;8.856;2023-01-28T05:32:12;8.50;;;4.35;;
31206;SDS011;17834;52.992;8.856;2023-01-28T05:34:38;7.55;;;5.03;;
31206;SDS011;17834;52.992;8.856;2023-01-28T05:37:04;12.82;;;7.30;;
31206;SDS011;17834;52.992;8.856;2023-01-28T05:39:30;13.10;;;7.45;;
31206;SDS011;17834;52.992;8.856;2023-01-28T05:41:56;12.00;;;7.00;;
31206;SDS011;17834;52.992;8.856;2023-01-28T05:44:22;13.63;;;7.50;;
31206;SDS011;17834;52.992;8.856;2023-01-28T05:46:48;18.02;;;7.75;;
31206;SDS011;17834;52.992;8.856;2023-01-28T05:49:14;15.93;;;8.43;;
31206;SDS011;17834;52.992;8.856;2023-01-28T05:51:40;14.80;;;7.68;;
31206;SDS011;17834;52.992;8.856;2023-01-28T05:54:06;15.27;;;8.23;;
31206;SDS011;17834;52.992;8.856;2023-01-28T05:56:33;15.43;;;7.65;;
31206;SDS011;17834;52.992;8.856;2023-01-28T05:59:00;14.80;;;7.80;;
31206;SDS011;17834;52.992;8.856;2023-01-28T06:01:26;18.05;;;7.55;;
31206;SDS011;17834;52.992;8.856;2023-01-28T06:03:52;18.40;;;9.23;;
31206;SDS011;17834;52.992;8.856;2023-01-28T06:06:18;16.65;;;8.48;;
31206;SDS011;17834;52.992;8.856;2023-01-28T06:08:44;16.40;;;8.75;;
31206;SDS011;17834;52.992;8.856;2023-01-28T06:11:10;16.75;;;8.23;;
31206;SDS011;17834;52.992;8.856;2023-01-28T06:13:36;18.88;;;8.43;;
31206;SDS011;17834;52.992;8.856;2023-01-28T06:16:02;18.88;;;10.13;;
31206;SDS011;17834;52.992;8.856;2023-01-28T06:18:28;23.63;;;10.60;;
31206;SDS011;17834;52.992;8.856;2023-01-28T06:20:54;18.33;;;9.20;;
31206;SDS011;17834;52.992;8.856;2023-01-28T06:23:20;21.63;;;9.60;;
31206;SDS011;17834;52.992;8.856;2023-01-28T06:25:46;21.48;;;10.05;;
31206;SDS011;17834;52.992;8.856;2023-01-28T06:28:11;17.20;;;9.30;;
31206;SDS011;17834;52.992;8.856;2023-01-28T06:30:37;16.83;;;9.07;;
31206;SDS011;17834;52.992;8.856;2023-01-28T06:33:03;18.45;;;9.23;;
31206;SDS011;17834;52.992;8.856;2023-01-28T06:35:30;22.25;;;10.52;;
31206;SDS011;17834;52.992;8.856;2023-01-28T06:37:56;20.88;;;10.82;;
31206;SDS011;17834;52.992;8.856;2023-01-28T06:40:22;23.98;;;10.48;;
31206;SDS011;17834;52.992;8.856;2023-01-28T06:42:49;21.50;;;10.57;;
31206;SDS011;17834;52.992;8.856;2023-01-28T06:45:15;19.67;;;10.98;;
31206;SDS011;17834;52.992;8.856;2023-01-28T06:47:41;18.70;;;8.95;;
31206;SDS011;17834;52.992;8.856;2023-01-28T06:50:07;20.73;;;10.55;;
31206;SDS011;17834;52.992;8.856;2023-01-28T06:52:34;16.70;;;9.32;;
31206;SDS011;17834;52.992;8.856;2023-01-28T06:55:00;18.50;;;10.20;;
31206;SDS011;17834;52.992;8.856;2023-01-28T06:57:26;19.23;;;10.23;;
31206;SDS011;17834;52.992;8.856;2023-01-28T06:59:52;18.55;;;8.95;;
31206;SDS011;17834;52.992;8.856;2023-01-28T07:02:17;17.35;;;9.52;;
31206;SDS011;17834;52.992;8.856;2023-01-28T07:04:43;21.58;;;9.40;;
31206;SDS011;17834;52.992;8.856;2023-01-28T07:07:09;18.98;;;10.02;;
31206;SDS011;17834;52.992;8.856;2023-01-28T07:09:35;22.77;;;9.60;;
31206;SDS011;17834;52.992;8.856;2023-01-28T07:12:01;24.92;;;10.55;;
31206;SDS011;17834;52.992;8.856;2023-01-28T07:14:29;17.52;;;9.45;;
31206;SDS011;17834;52.992;8.856;2023-01-28T07:16:55;21.05;;;10.90;;
31206;SDS011;17834;52.992;8.856;2023-01-28T07:19:21;27.60;;;10.90;;
31206;SDS011;17834;52.992;8.856;2023-01-28T07:21:47;24.67;;;11.38;;
31206;SDS011;17834;52.992;8.856;2023-01-28T07:24:13;20.90;;;10.55;;
31206;SDS011;17834;52.992;8.856;2023-01-28T07:26:39;18.50;;;10.82;;
31206;SDS011;17834;52.992;8.856;2023-01-28T07:29:05;17.30;;;9.77;;
31206;SDS011;17834;52.992;8.856;2023-01-28T07:31:30;21.10;;;11.00;;
31206;SDS011;17834;52.992;8.856;2023-01-28T07:33:56;26.83;;;11.25;;
31206;SDS011;17834;52.992;8.856;2023-01-28T07:36:22;17.27;;;10.23;;
31206;SDS011;17834;52.992;8.856;2023-01-28T07:38:48;20.15;;;10.82;;
31206;SDS011;17834;52.992;8.856;2023-01-28T07:41:14;22.63;;;11.30;;
31206;SDS011;17834;52.992;8.856;2023-01-28T07:43:40;24.60;;;10.38;;
31206;SDS011;17834;52.992;8.856;2023-01-28T07:46:06;21.30;;;12.43;;
31206;SDS011;17834;52.992;8.856;2023-01-28T07:48:32;28.17;;;11.30;;
31206;SDS011;17834;52.992;8.856;2023-01-28T07:50:59;24.63;;;12.13;;
31206;SDS011;17834;52.992;8.856;2023-01-28T07:53:25;30.70;;;12.63;;
31206;SDS011;17834;52.992;8.856;2023-01-28T07:55:51;27.13;;;13.32;;
31206;SDS011;17834;52.992;8.856;2023-01-28T07:58:17;33.65;;;14.40;;
31206;SDS011;17834;52.992;8.856;2023-01-28T08:00:43;24.90;;;12.02;;
31206;SDS011;17834;52.992;8.856;2023-01-28T08:03:11;25.10;;;12.38;;
31206;SDS011;17834;52.992;8.856;2023-01-28T08:05:45;25.85;;;13.23;;
31206;SDS011;17834;52.992;8.856;2023-01-28T08:08:11;27.08;;;13.27;;
31206;SDS011;17834;52.992;8.856;2023-01-28T08:10:38;28.35;;;12.55;;
31206;SDS011;17834;52.992;8.856;2023-01-28T08:13:04;24.05;;;12.55;;
31206;SDS011;17834;52.992;8.856;2023-01-28T08:15:30;24.92;;;12.80;;
31206;SDS011;17834;52.992;8.856;2023-01-28T08:17:56;29.48;;;13.32;;
31206;SDS011;17834;52.992;8.856;2023-01-28T08:20:23;26.85;;;13.52;;
31206;SDS011;17834;52.992;8.856;2023-01-28T08:22:49;26.27;;;13.20;;
31206;SDS011;17834;52.992;8.856;2023-01-28T08:25:15;30.42;;;13.70;;
31206;SDS011;17834;52.992;8.856;2023-01-28T08:27:41;30.27;;;13.13;;
31206;SDS011;17834;52.992;8.856;2023-01-28T08:30:07;28.25;;;13.30;;
31206;SDS011;17834;52.992;8.856;2023-01-28T08:32:34;32.03;;;13.57;;
31206;SDS011;17834;52.992;8.856;2023-01-28T08:35:00;38.25;;;14.25;;
31206;SDS011;17834;52.992;8.856;2023-01-28T08:37:26;32.83;;;13.18;;
31206;SDS011;17834;52.992;8.856;2023-01-28T08:39:52;31.67;;;13.75;;
31206;SDS011;17834;52.992;8.856;2023-01-28T08:42:19;32.90;;;15.68;;
31206;SDS011;17834;52.992;8.856;2023-01-28T08:44:45;34.13;;;15.15;;
31206;SDS011;17834;52.992;8.856;2023-01-28T08:47:12;36.55;;;15.63;;
31206;SDS011;17834;52.992;8.856;2023-01-28T08:49:38;33.85;;;14.73;;
31206;SDS011;17834;52.992;8.856;2023-01-28T08:52:03;32.72;;;15.77;;
31206;SDS011;17834;52.992;8.856;2023-01-28T08:54:29;34.58;;;15.45;;
31206;SDS011;17834;52.992;8.856;2023-01-28T08:56:55;28.15;;;13.32;;
31206;SDS011;17834;52.992;8.856;2023-01-28T08:59:21;29.90;;;13.40;;
31206;SDS011;17834;52.992;8.856;2023-01-28T09:01:47;31.25;;;13.98;;
31206;SDS011;17834;52.992;8.856;2023-01-28T09:04:13;28.63;;;13.95;;
31206;SDS011;17834;52.992;8.856;2023-01-28T09:06:39;26.35;;;12.45;;
31206;SDS011;17834;52.992;8.856;2023-01-28T09:09:05;29.42;;;13.35;;
31206;SDS011;17834;52.992;8.856;2023-01-28T09:11:31;25.80;;;12.88;;
31206;SDS011;17834;52.992;8.856;2023-01-28T09:13:57;32.88;;;14.35;;
31206;SDS011;17834;52.992;8.856;2023-01-28T09:16:23;28.88;;;14.48;;
31206;SDS011;17834;52.992;8.856;2023-01-28T09:18:50;26.63;;;13.65;;
31206;SDS011;17834;52.992;8.856;2023-01-28T09:21:17;25.20;;;12.52;;
31206;SDS011;17834;52.992;8.856;2023-01-28T09:23:43;30.88;;;14.55;;
31206;SDS011;17834;52.992;8.856;2023-01-28T09:26:09;29.23;;;13.93;;
31206;SDS011;17834;52.992;8.856;2023-01-28T09:28:35;26.15;;;12.45;;
31206;SDS011;17834;52.992;8.856;2023-01-28T09:31:06;31.10;;;14.27;;
31206;SDS011;17834;52.992;8.856;2023-01-28T09:33:33;24.67;;;12.63;;
31206;SDS011;17834;52.992;8.856;2023-01-28T09:35:59;28.98;;;13.10;;
31206;SDS011;17834;52.992;8.856;2023-01-28T09:38:26;29.17;;;13.45;;
31206;SDS011;17834;52.992;8.856;2023-01-28T09:40:52;27.50;;;12.30;;
31206;SDS011;17834;52.992;8.856;2023-01-28T09:46:05;39.97;;;14.85;;
31206;SDS011;17834;52.992;8.856;2023-01-28T09:48:33;30.20;;;14.18;;
31206;SDS011;17834;52.992;8.856;2023-01-28T09:51:02;33.42;;;14.05;;
31206;SDS011;17834;52.992;8.856;2023-01-28T09:53:30;30.80;;;14.63;;
31206;SDS011;17834;52.992;8.856;2023-01-28T09:55:59;37.15;;;14.63;;
31206;SDS011;17834;52.992;8.856;2023-01-28T09:58:26;31.05;;;13.85;;
31206;SDS011;17834;52.992;8.856;2023-01-28T10:01:20;32.38;;;15.10;;
31206;SDS011;17834;52.992;8.856;2023-01-28T10:09:13;31.63;;;13.65;;
31206;SDS011;17834;52.992;8.856;2023-01-28T10:11:49;24.42;;;11.20;;
31206;SDS011;17834;52.992;8.856;2023-01-28T10:17:09;27.33;;;12.88;;
31206;SDS011;17834;52.992;8.856;2023-01-28T10:19:56;26.00;;;12.13;;
31206;SDS011;17834;52.992;8.856;2023-01-28T10:22:29;26.70;;;13.15;;
31206;SDS011;17834;52.992;8.856;2023-01-28T10:24:56;31.25;;;13.25;;
31206;SDS011;17834;52.992;8.856;2023-01-28T10:27:27;26.05;;;13.32;;
31206;SDS011;17834;52.992;8.856;2023-01-28T10:29:54;29.15;;;12.60;;
31206;SDS011;17834;52.992;8.856;2023-01-28T10:32:30;27.98;;;12.57;;
31206;SDS011;17834;52.992;8.856;2023-01-28T10:34:58;23.42;;;11.45;;
31206;SDS011;17834;52.992;8.856;2023-01-28T10:37:25;25.85;;;13.00;;
31206;SDS011;17834;52.992;8.856;2023-01-28T10:39:52;24.60;;;11.57;;
31206;SDS011;17834;52.992;8.856;2023-01-28T10:42:26;27.35;;;11.90;;
31206;SDS011;17834;52.992;8.856;2023-01-28T10:44:53;23.90;;;11.38;;
31206;SDS011;17834;52.992;8.856;2023-01-28T10:47:26;22.60;;;11.80;;
31206;SDS011;17834;52.992;8.856;2023-01-28T10:49:53;24.92;;;11.82;;
31206;SDS011;17834;52.992;8.856;2023-01-28T10:52:21;22.00;;;11.07;;
31206;SDS011;17834;52.992;8.856;2023-01-28T10:54:47;21.50;;;11.00;;
31206;SDS011;17834;52.992;8.856;2023-01-28T10:57:23;24.33;;;10.85;;
31206;SDS011;17834;52.992;8.856;2023-01-28T10:59:49;21.90;;;10.65;;
31206;SDS011;17834;52.992;8.856;2023-01-28T11:04:47;20.80;;;10.25;;
31206;SDS011;17834;52.992;8.856;2023-01-28T11:07:17;17.65;;;9.50;;
31206;SDS011;17834;52.992;8.856;2023-01-28T11:09:44;21.25;;;10.80;;
31206;SDS011;17834;52.992;8.856;2023-01-28T11:12:11;23.45;;;11.27;;
31206;SDS011;17834;52.992;8.856;2023-01-28T11:14:42;28.38;;;12.27;;
31206;SDS011;17834;52.992;8.856;2023-01-28T11:17:11;23.40;;;11.07;;
31206;SDS011;17834;52.992;8.856;2023-01-28T11:19:40;24.40;;;12.55;;
31206;SDS011;17834;52.992;8.856;2023-01-28T11:22:13;22.00;;;10.93;;
31206;SDS011;17834;52.992;8.856;2023-01-28T11:24:44;25.92;;;11.30;;
31206;SDS011;17834;52.992;8.856;2023-01-28T11:27:12;19.30;;;10.15;;
31206;SDS011;17834;52.992;8.856;2023-01-28T11:29:40;21.55;;;10.68;;
31206;SDS011;17834;52.992;8.856;2023-01-28T11:32:15;22.48;;;10.80;;
31206;SDS011;17834;52.992;8.856;2023-01-28T11:34:46;18.63;;;9.52;;
31206;SDS011;17834;52.992;8.856;2023-01-28T11:37:13;26.05;;;11.55;;
31206;SDS011;17834;52.992;8.856;2023-01-28T11:39:43;22.70;;;10.18;;
31206;SDS011;17834;52.992;8.856;2023-01-28T11:42:16;20.10;;;10.10;;
31206;SDS011;17834;52.992;8.856;2023-01-28T11:44:42;24.40;;;10.48;;
31206;SDS011;17834;52.992;8.856;2023-01-28T11:47:18;23.15;;;10.75;;
31206;SDS011;17834;52.992;8.856;2023-01-28T11:49:56;22.95;;;10.95;;
31206;SDS011;17834;52.992;8.856;2023-01-28T12:02:35;24.20;;;11.07;;
31206;SDS011;17834;52.992;8.856;2023-01-28T12:12:57;21.48;;;10.55;;
31206;SDS011;17834;52.992;8.856;2023-01-28T12:23:18;21.08;;;10.82;;
31206;SDS011;17834;52.992;8.856;2023-01-28T12:26:02;21.45;;;9.98;;
31206;SDS011;17834;52.992;8.856;2023-01-28T12:31:00;20.85;;;9.93;;
31206;SDS011;17834;52.992;8.856;2023-01-28T12:33:36;21.73;;;9.90;;
31206;SDS011;17834;52.992;8.856;2023-01-28T12:38:54;20.77;;;10.13;;
31206;SDS011;17834;52.992;8.856;2023-01-28T12:41:27;23.30;;;10.65;;
31206;SDS011;17834;52.992;8.856;2023-01-28T12:43:56;22.38;;;10.02;;
31206;SDS011;17834;52.992;8.856;2023-01-28T12:46:28;23.08;;;10.75;;
31206;SDS011;17834;52.992;8.856;2023-01-28T12:48:59;17.35;;;9.52;;
31206;SDS011;17834;52.992;8.856;2023-01-28T12:51:27;22.13;;;10.27;;
31206;SDS011;17834;52.992;8.856;2023-01-28T12:53:56;18.88;;;9.82;;
31206;SDS011;17834;52.992;8.856;2023-01-28T12:56:29;23.13;;;10.00;;
31206;SDS011;17834;52.992;8.856;2023-01-28T13:01:28;20.02;;;10.43;;
31206;SDS011;17834;52.992;8.856;2023-01-28T13:04:00;24.17;;;9.88;;
31206;SDS011;17834;52.992;8.856;2023-01-28T13:06:30;22.70;;;10.65;;
31206;SDS011;17834;52.992;8.856;2023-01-28T13:08:58;24.55;;;10.32;;
31206;SDS011;17834;52.992;8.856;2023-01-28T13:11:26;22.23;;;10.55;;
31206;SDS011;17834;52.992;8.856;2023-01-28T13:13:56;19.55;;;9.10;;
31206;SDS011;17834;52.992;8.856;2023-01-28T13:16:22;24.20;;;9.52;;
31206;SDS011;17834;52.992;8.856;2023-01-28T13:18:48;20.48;;;9.32;;
31206;SDS011;17834;52.992;8.856;2023-01-28T13:23:49;23.93;;;9.43;;
31206;SDS011;17834;52.992;8.856;2023-01-28T13:28:45;19.75;;;9.05;;
31206;SDS011;17834;52.992;8.856;2023-01-28T13:31:12;20.50;;;8.55;;
31206;SDS011;17834;52.992;8.856;2023-01-28T13:33:42;19.30;;;8.98;;
31206;SDS011;17834;52.992;8.856;2023-01-28T13:36:23;16.98;;;8.40;;
31206;SDS011;17834;52.992;8.856;2023-01-28T13:39:00;20.95;;;7.88;;
31206;SDS011;17834;52.992;8.856;2023-01-28T13:41:36;19.85;;;8.85;;
31206;SDS011;17834;52.992;8.856;2023-01-28T13:44:02;15.90;;;7.43;;
31206;SDS011;17834;52.992;8.856;2023-01-28T13:46:29;23.10;;;9.15;;
31206;SDS011;17834;52.992;8.856;2023-01-28T13:48:56;18.45;;;8.10;;
31206;SDS011;17834;52.992;8.856;2023-01-28T13:51:27;21.48;;;8.68;;
31206;SDS011;17834;52.992;8.856;2023-01-28T13:53:59;21.23;;;9.20;;
31206;SDS011;17834;52.992;8.856;2023-01-28T13:56:31;18.58;;;8.75;;
31206;SDS011;17834;52.992;8.856;2023-01-28T14:04:26;16.02;;;7.70;;
31206;SDS011;17834;52.992;8.856;2023-01-28T14:09:54;19.02;;;8.15;;
31206;SDS011;17834;52.992;8.856;2023-01-28T14:12:28;16.35;;;7.78;;
31206;SDS011;17834;52.992;8.856;2023-01-28T14:17:27;16.85;;;8.57;;
31206;SDS011;17834;52.992;8.856;2023-01-28T14:19:57;18.60;;;8.73;;
31206;SDS011;17834;52.992;8.856;2023-01-28T14:22:24;18.33;;;8.50;;
31206;SDS011;17834;52.992;8.856;2023-01-28T14:24:50;16.48;;;7.63;;
31206;SDS011;17834;52.992;8.856;2023-01-28T14:27:19;15.70;;;7.65;;
31206;SDS011;17834;52.992;8.856;2023-01-28T14:32:23;21.53;;;8.27;;
31206;SDS011;17834;52.992;8.856;2023-01-28T14:34:53;18.58;;;8.90;;
31206;SDS011;17834;52.992;8.856;2023-01-28T14:37:21;17.80;;;8.30;;
31206;SDS011;17834;52.992;8.856;2023-01-28T14:39:51;15.82;;;8.82;;
31206;SDS011;17834;52.992;8.856;2023-01-28T14:42:24;18.73;;;8.68;;
31206;SDS011;17834;52.992;8.856;2023-01-28T14:45:13;16.48;;;7.75;;
31206;SDS011;17834;52.992;8.856;2023-01-28T14:55:52;18.85;;;8.00;;
31206;SDS011;17834;52.992;8.856;2023-01-28T14:58:38;18.92;;;7.97;;
31206;SDS011;17834;52.992;8.856;2023-01-28T15:01:16;21.75;;;8.88;;
31206;SDS011;17834;52.992;8.856;2023-01-28T15:03:43;24.15;;;8.70;;
31206;SDS011;17834;52.992;8.856;2023-01-28T15:06:14;19.77;;;8.00;;
31206;SDS011;17834;52.992;8.856;2023-01-28T15:08:40;17.88;;;7.82;;
31206;SDS011;17834;52.992;8.856;2023-01-28T15:11:08;19.60;;;8.73;;
31206;SDS011;17834;52.992;8.856;2023-01-28T15:13:38;18.70;;;9.00;;
31206;SDS011;17834;52.992;8.856;2023-01-28T15:16:05;21.00;;;9.60;;
31206;SDS011;17834;52.992;8.856;2023-01-28T15:18:37;17.23;;;7.93;;
31206;SDS011;17834;52.992;8.856;2023-01-28T15:21:05;19.73;;;8.77;;
31206;SDS011;17834;52.992;8.856;2023-01-28T15:23:32;22.15;;;10.27;;
31206;SDS011;17834;52.992;8.856;2023-01-28T15:25:58;23.20;;;9.40;;
31206;SDS011;17834;52.992;8.856;2023-01-28T15:28:29;20.13;;;8.88;;
31206;SDS011;17834;52.992;8.856;2023-01-28T15:30:56;18.00;;;8.57;;
31206;SDS011;17834;52.992;8.856;2023-01-28T15:33:23;22.45;;;9.18;;
31206;SDS011;17834;52.992;8.856;2023-01-28T15:35:50;21.70;;;9.45;;
31206;SDS011;17834;52.992;8.856;2023-01-28T15:38:16;21.77;;;9.60;;
31206;SDS011;17834;52.992;8.856;2023-01-28T15:40:43;19.90;;;9.55;;
31206;SDS011;17834;52.992;8.856;2023-01-28T15:43:20;15.98;;;8.38;;
31206;SDS011;17834;52.992;8.856;2023-01-28T15:45:47;18.30;;;7.50;;
31206;SDS011;17834;52.992;8.856;2023-01-28T15:48:14;22.90;;;9.35;;
31206;SDS011;17834;52.992;8.856;2023-01-28T15:50:40;20.88;;;9.20;;
31206;SDS011;17834;52.992;8.856;2023-01-28T15:53:09;19.80;;;9.80;;
31206;SDS011;17834;52.992;8.856;2023-01-28T15:55:37;23.10;;;9.18;;
31206;SDS011;17834;52.992;8.856;2023-01-28T15:58:08;20.70;;;10.38;;
31206;SDS011;17834;52.992;8.856;2023-01-28T16:00:34;25.13;;;10.38;;
31206;SDS011;17834;52.992;8.856;2023-01-28T16:03:05;25.95;;;10.35;;
31206;SDS011;17834;52.992;8.856;2023-01-28T16:07:58;23.27;;;9.32;;
31206;SDS011;17834;52.992;8.856;2023-01-28T16:10:27;22.48;;;9.43;;
31206;SDS011;17834;52.992;8.856;2023-01-28T16:12:55;22.23;;;9.73;;
31206;SDS011;17834;52.992;8.856;2023-01-28T16:15:22;19.35;;;8.98;;
31206;SDS011;17834;52.992;8.856;2023-01-28T16:17:49;19.27;;;8.90;;